createdAt,value
2023-02-19T00:23:34.091Z,98301.53
2023-02-19T00:53:41.432Z,98295.22
2023-02-19T01:23:45.719Z,98279.00
2023-02-19T01:53:54.938Z,98260.91
2023-02-19T02:24:11.953Z,98241.59
2023-02-19T02:54:35.668Z,98243.41
2023-02-19T03:25:00.314Z,98240.91
2023-02-19T03:55:08.388Z,98233.19
2023-02-19T04:25:12.520Z,98251.94
2023-02-19T04:55:16.631Z,98285.47
2023-02-19T05:25:20.697Z,98302.19
2023-02-19T05:55:25.197Z,98333.31
2023-02-19T06:25:29.252Z,98377.81
2023-02-19T06:55:33.701Z,98383.72
2023-02-19T07:25:39.211Z,98434.75
2023-02-19T07:55:43.346Z,98497.81
2023-02-19T08:25:48.184Z,98527.69
2023-02-19T08:55:52.732Z,98562.28
2023-02-19T09:26:00.721Z,98589.31
2023-02-19T09:56:05.896Z,98640.72
2023-02-19T10:26:10.050Z,98689.19
2023-02-19T10:56:16.598Z,98716.13
2023-02-19T11:26:22.538Z,98750.34
2023-02-19T11:56:33.798Z,98756.06
2023-02-19T12:26:44.847Z,98767.47
2023-02-19T12:56:53.710Z,98754.63
2023-02-19T13:27:08.168Z,98765.38
2023-02-19T13:57:30.725Z,98774.56
2023-02-19T14:27:34.822Z,98804.34
2023-02-19T14:57:41.548Z,98817.16
2023-02-19T15:27:46.918Z,98857.94
2023-02-19T15:57:54.786Z,98807.56
2023-02-19T16:27:59.354Z,98808.13
2023-02-19T16:58:03.752Z,98835.34
2023-02-19T17:28:08.616Z,98884.59
2023-02-19T17:58:13.014Z,98948.72
2023-02-19T18:28:17.503Z,98950.25
2023-02-19T18:58:21.817Z,98954.72
2023-02-19T19:28:25.955Z,98958.53
2023-02-19T19:58:30.238Z,98979.69
2023-02-19T20:28:34.510Z,99016.78
2023-02-19T20:58:38.648Z,99024.69
2023-02-19T21:28:42.710Z,99056.38
2023-02-19T21:58:47.163Z,99070.47
2023-02-19T22:28:51.402Z,99071.66
2023-02-19T22:58:56.285Z,99080.63
2023-02-19T23:29:00.340Z,99078.97
2023-02-19T23:59:04.712Z,99066.19
